Time;durP1;ratioP1;P1;durP2;ratioP2;P2;SDS_P1;SDS_P2;PMS_P1;PMS_P2;Temp;Humidity;BMP_temperature;BMP_pressure;BME280_temperature;BME280_humidity;BME280_pressure;Samples;Min_cycle;Max_cycle;Signal;HPM_P1;HPM_P2
2021/01/17 00:02:24;;;;;;;7.07;4.70;;;;;;;;;;5065508;28;20066;-63
2021/01/17 00:04:49;;;;;;;11.53;6.80;;;;;;;;;;5074270;28;20016;-63
2021/01/17 00:07:15;;;;;;;7.20;4.37;;;;;;;;;;5073471;28;20025;-63
2021/01/17 00:09:40;;;;;;;12.00;7.37;;;;;;;;;;5068464;28;20024;-62
2021/01/17 00:12:06;;;;;;;12.80;6.87;;;;;;;;;;5074330;28;20463;-63
2021/01/17 00:14:32;;;;;;;7.37;4.17;;;;;;;;;;5073772;28;20055;-63
2021/01/17 00:16:57;;;;;;;10.80;6.80;;;;;;;;;;5074165;28;20043;-63
2021/01/17 00:19:23;;;;;;;11.47;7.00;;;;;;;;;;5060743;28;20028;-63
2021/01/17 00:21:48;;;;;;;12.00;6.70;;;;;;;;;;5062560;28;20013;-63
2021/01/17 00:24:13;;;;;;;9.90;6.23;;;;;;;;;;5073804;28;20024;-63
2021/01/17 00:26:38;;;;;;;8.63;5.77;;;;;;;;;;5073833;28;20107;-63
2021/01/17 00:29:04;;;;;;;11.40;6.97;;;;;;;;;;5058597;28;20046;-63
2021/01/17 00:31:33;;;;;;;11.60;6.67;;;;;;;;;;5067340;28;20024;-63
2021/01/17 00:33:58;;;;;;;9.40;6.17;;;;;;;;;;5054862;28;20036;-63
2021/01/17 00:36:23;;;;;;;12.07;6.73;;;;;;;;;;5058607;28;20024;-63
2021/01/17 00:38:48;;;;;;;11.27;6.40;;;;;;;;;;5064213;28;20016;-63
2021/01/17 00:41:13;;;;;;;10.20;6.27;;;;;;;;;;5063096;28;20387;-63
2021/01/17 00:43:39;;;;;;;8.33;6.00;;;;;;;;;;5072228;28;20044;-63
2021/01/17 00:46:04;;;;;;;10.23;6.70;;;;;;;;;;5062315;28;20103;-63
2021/01/17 00:48:29;;;;;;;11.90;6.80;;;;;;;;;;5061810;28;20017;-63
2021/01/17 00:50:55;;;;;;;9.47;6.13;;;;;;;;;;5053552;28;20021;-63
2021/01/17 00:53:20;;;;;;;10.37;6.13;;;;;;;;;;5071622;28;20042;-63
2021/01/17 00:55:45;;;;;;;11.83;6.47;;;;;;;;;;5077617;28;20017;-63
2021/01/17 00:58:11;;;;;;;11.03;6.10;;;;;;;;;;5061984;28;20017;-63
2021/01/17 01:00:36;;;;;;;6.40;3.53;;;;;;;;;;5064127;28;20324;-61
2021/01/17 01:03:02;;;;;;;10.00;6.40;;;;;;;;;;5066025;28;20028;-63
2021/01/17 01:05:27;;;;;;;11.63;5.97;;;;;;;;;;5065375;28;20356;-62
2021/01/17 01:07:52;;;;;;;12.67;7.10;;;;;;;;;;5071477;28;20027;-62
2021/01/17 01:10:17;;;;;;;11.40;5.93;;;;;;;;;;5070012;28;20023;-63
2021/01/17 01:12:43;;;;;;;9.40;6.03;;;;;;;;;;5061830;28;20419;-62
2021/01/17 01:15:08;;;;;;;10.97;5.63;;;;;;;;;;5061581;28;20036;-62
2021/01/17 01:17:33;;;;;;;9.73;5.93;;;;;;;;;;5070515;28;20024;-62
2021/01/17 01:19:59;;;;;;;5.10;2.67;;;;;;;;;;5051179;28;20028;-63
2021/01/17 01:22:24;;;;;;;12.30;5.97;;;;;;;;;;5056057;28;20017;-63
2021/01/17 01:24:49;;;;;;;10.67;6.40;;;;;;;;;;5061107;28;20405;-63
2021/01/17 01:27:14;;;;;;;9.67;5.27;;;;;;;;;;5053678;28;20083;-62
2021/01/17 01:29:39;;;;;;;10.00;6.57;;;;;;;;;;5059788;28;20154;-62
2021/01/17 01:32:05;;;;;;;9.43;5.80;;;;;;;;;;5061363;28;20024;-63
2021/01/17 01:34:30;;;;;;;10.07;5.73;;;;;;;;;;5064086;28;20112;-62
2021/01/17 01:36:55;;;;;;;10.13;6.43;;;;;;;;;;5068054;28;20028;-63
2021/01/17 01:39:21;;;;;;;7.30;5.10;;;;;;;;;;5067554;28;20040;-62
2021/01/17 01:41:46;;;;;;;10.83;5.70;;;;;;;;;;5063187;28;20074;-63
2021/01/17 01:44:11;;;;;;;10.07;5.60;;;;;;;;;;5052970;28;20078;-62
2021/01/17 01:46:38;;;;;;;10.13;5.90;;;;;;;;;;5060342;28;20446;-63
2021/01/17 01:49:03;;;;;;;9.80;5.10;;;;;;;;;;5065047;28;20025;-63
2021/01/17 01:51:28;;;;;;;8.47;5.83;;;;;;;;;;5056599;28;20371;-62
2021/01/17 01:53:54;;;;;;;8.80;4.90;;;;;;;;;;5052541;28;20411;-63
2021/01/17 01:56:20;;;;;;;10.03;6.30;;;;;;;;;;5064829;28;20027;-62
2021/01/17 01:58:45;;;;;;;10.27;6.30;;;;;;;;;;5065833;28;20399;-61
2021/01/17 02:01:10;;;;;;;8.90;5.70;;;;;;;;;;5059031;28;20027;-62
2021/01/17 02:03:36;;;;;;;10.10;5.67;;;;;;;;;;5069518;28;20342;-63
2021/01/17 02:06:02;;;;;;;8.20;5.23;;;;;;;;;;5068593;28;20074;-63
2021/01/17 02:08:42;;;;;;;8.93;5.27;;;;;;;;;;5069095;28;20024;-63
2021/01/17 02:11:14;;;;;;;8.60;5.20;;;;;;;;;;5071924;28;20027;-63
2021/01/17 02:13:40;;;;;;;9.93;4.83;;;;;;;;;;5072298;28;20025;-62
2021/01/17 02:16:06;;;;;;;8.40;5.33;;;;;;;;;;5061348;28;20390;-62
2021/01/17 02:18:39;;;;;;;10.60;5.27;;;;;;;;;;5067170;28;20020;-62
2021/01/17 02:21:05;;;;;;;8.83;5.67;;;;;;;;;;5052478;28;20025;-62
2021/01/17 02:23:34;;;;;;;9.60;5.50;;;;;;;;;;5050226;28;20021;-62
2021/01/17 02:25:59;;;;;;;10.93;6.07;;;;;;;;;;5063172;28;20044;-63
2021/01/17 02:28:24;;;;;;;8.60;5.33;;;;;;;;;;5066522;28;20024;-63
2021/01/17 02:30:54;;;;;;;8.73;5.37;;;;;;;;;;5064804;28;20119;-62
2021/01/17 02:33:21;;;;;;;9.17;5.13;;;;;;;;;;5070552;28;20392;-62
2021/01/17 02:35:49;;;;;;;10.07;5.30;;;;;;;;;;5066660;28;20028;-62
2021/01/17 02:38:23;;;;;;;9.80;6.03;;;;;;;;;;5070758;28;20024;-62
2021/01/17 02:40:58;;;;;;;10.27;5.97;;;;;;;;;;5069035;28;20476;-62
2021/01/17 02:43:25;;;;;;;11.47;5.47;;;;;;;;;;5052358;28;20033;-62
2021/01/17 02:45:50;;;;;;;9.73;5.77;;;;;;;;;;5054670;28;20021;-63
2021/01/17 02:48:15;;;;;;;9.97;4.83;;;;;;;;;;5060036;28;20025;-62
2021/01/17 02:50:40;;;;;;;10.20;5.93;;;;;;;;;;5048171;28;20017;-63
2021/01/17 02:53:14;;;;;;;10.93;6.30;;;;;;;;;;5058206;28;20102;-62
2021/01/17 02:55:40;;;;;;;8.57;5.37;;;;;;;;;;5069187;28;20418;-62
2021/01/17 02:58:07;;;;;;;5.50;3.10;;;;;;;;;;5066951;28;20032;-62
2021/01/17 03:00:33;;;;;;;7.93;5.30;;;;;;;;;;5062946;28;20399;-63
2021/01/17 03:02:59;;;;;;;8.83;5.70;;;;;;;;;;5066362;28;20055;-62
2021/01/17 03:05:24;;;;;;;9.50;5.90;;;;;;;;;;5063001;28;20075;-63
2021/01/17 03:07:51;;;;;;;9.83;5.50;;;;;;;;;;5068629;28;20025;-62
2021/01/17 03:10:16;;;;;;;10.10;6.27;;;;;;;;;;5056370;28;20021;-63
2021/01/17 03:12:41;;;;;;;10.97;5.83;;;;;;;;;;5067584;28;20028;-63
2021/01/17 03:15:07;;;;;;;10.30;7.23;;;;;;;;;;5058787;28;21288;-62
2021/01/17 03:17:32;;;;;;;9.17;6.73;;;;;;;;;;5070547;28;20032;-62
2021/01/17 03:19:57;;;;;;;11.37;6.27;;;;;;;;;;5065511;28;20029;-62
2021/01/17 03:22:23;;;;;;;11.60;6.17;;;;;;;;;;5065440;28;20033;-62
2021/01/17 03:24:48;;;;;;;8.50;5.53;;;;;;;;;;5067315;28;20040;-63
2021/01/17 03:27:13;;;;;;;11.13;6.70;;;;;;;;;;5069958;28;20113;-63
2021/01/17 03:29:38;;;;;;;10.90;6.67;;;;;;;;;;5059633;28;20017;-62
2021/01/17 03:32:04;;;;;;;11.80;7.33;;;;;;;;;;5055906;28;20375;-62
2021/01/17 03:34:29;;;;;;;10.43;6.60;;;;;;;;;;5073350;28;20051;-62
2021/01/17 03:36:54;;;;;;;9.77;6.40;;;;;;;;;;5074534;28;20012;-63
2021/01/17 03:39:20;;;;;;;9.53;5.87;;;;;;;;;;5054105;28;20032;-62
2021/01/17 03:41:45;;;;;;;11.63;7.23;;;;;;;;;;5055838;28;20059;-63
2021/01/17 03:44:10;;;;;;;9.70;5.97;;;;;;;;;;5064399;28;20120;-62
2021/01/17 03:46:35;;;;;;;8.73;5.50;;;;;;;;;;5067330;28;20507;-62
2021/01/17 03:49:01;;;;;;;11.10;6.33;;;;;;;;;;5057633;28;20033;-62
2021/01/17 03:51:26;;;;;;;10.10;6.33;;;;;;;;;;5055587;28;20050;-63
2021/01/17 03:53:51;;;;;;;10.70;6.80;;;;;;;;;;5053574;28;20024;-62
2021/01/17 03:56:17;;;;;;;11.00;6.97;;;;;;;;;;5066809;28;20466;-62
2021/01/17 03:58:42;;;;;;;11.97;7.37;;;;;;;;;;5052561;28;20013;-63
2021/01/17 04:01:08;;;;;;;10.23;5.83;;;;;;;;;;5054371;28;20387;-62
2021/01/17 04:03:33;;;;;;;9.63;5.60;;;;;;;;;;5054714;28;20348;-62
2021/01/17 04:05:58;;;;;;;10.43;6.60;;;;;;;;;;5071303;28;20020;-62
2021/01/17 04:08:23;;;;;;;9.73;5.93;;;;;;;;;;5073014;28;20028;-62
2021/01/17 04:10:48;;;;;;;10.27;6.13;;;;;;;;;;5070013;28;20036;-62
2021/01/17 04:13:14;;;;;;;10.77;5.50;;;;;;;;;;5063147;28;20039;-62
2021/01/17 04:15:39;;;;;;;9.23;5.93;;;;;;;;;;5072384;28;20082;-62
2021/01/17 04:18:04;;;;;;;10.40;6.13;;;;;;;;;;5072138;28;20078;-62
2021/01/17 04:20:29;;;;;;;10.10;6.53;;;;;;;;;;5070443;28;20073;-62
2021/01/17 04:23:01;;;;;;;9.67;6.33;;;;;;;;;;5073242;28;20211;-62
2021/01/17 04:25:26;;;;;;;8.80;5.67;;;;;;;;;;5072745;28;20051;-62
2021/01/17 04:27:51;;;;;;;9.73;6.60;;;;;;;;;;5067293;28;20387;-62
2021/01/17 04:30:17;;;;;;;9.30;6.40;;;;;;;;;;5056113;28;20387;-62
2021/01/17 04:32:42;;;;;;;9.13;6.23;;;;;;;;;;5060684;28;20466;-62
2021/01/17 04:35:07;;;;;;;8.90;6.07;;;;;;;;;;5062153;28;20028;-62
2021/01/17 04:37:33;;;;;;;10.40;6.20;;;;;;;;;;5073463;28;21731;-62
2021/01/17 04:39:58;;;;;;;11.23;6.60;;;;;;;;;;5071527;28;20024;-62
2021/01/17 04:42:23;;;;;;;9.53;6.80;;;;;;;;;;5060564;28;20158;-62
2021/01/17 04:44:50;;;;;;;8.47;5.60;;;;;;;;;;5070851;28;20058;-62
2021/01/17 04:47:17;;;;;;;9.60;5.87;;;;;;;;;;5054398;28;20017;-62
2021/01/17 04:49:42;;;;;;;8.63;5.43;;;;;;;;;;5069583;28;20016;-62
2021/01/17 04:52:08;;;;;;;8.80;5.50;;;;;;;;;;5062961;28;20031;-62
2021/01/17 04:54:34;;;;;;;8.83;6.10;;;;;;;;;;5071812;28;20082;-62
2021/01/17 04:57:01;;;;;;;8.20;5.63;;;;;;;;;;5054392;28;20020;-62
2021/01/17 04:59:31;;;;;;;9.77;6.03;;;;;;;;;;5068618;28;20028;-62
2021/01/17 05:02:18;;;;;;;8.43;5.80;;;;;;;;;;5066936;28;20127;-62
2021/01/17 05:05:02;;;;;;;9.47;5.80;;;;;;;;;;5069325;28;20017;-62
2021/01/17 05:07:33;;;;;;;8.93;5.50;;;;;;;;;;5070654;28;20012;-62
2021/01/17 05:10:01;;;;;;;9.57;5.77;;;;;;;;;;5060849;28;20043;-61
2021/01/17 05:12:30;;;;;;;11.83;5.17;;;;;;;;;;5059964;28;20021;-61
2021/01/17 05:14:55;;;;;;;9.37;5.80;;;;;;;;;;5072520;28;20035;-62
2021/01/17 05:17:24;;;;;;;7.97;5.13;;;;;;;;;;5058051;28;20021;-61
2021/01/17 05:19:50;;;;;;;9.50;5.97;;;;;;;;;;5067571;28;20024;-62
2021/01/17 05:22:17;;;;;;;9.33;5.70;;;;;;;;;;5057873;28;20434;-62
2021/01/17 05:24:42;;;;;;;9.93;5.63;;;;;;;;;;5068041;28;20398;-62
2021/01/17 05:27:07;;;;;;;9.07;5.20;;;;;;;;;;5073290;28;20103;-62
2021/01/17 05:29:32;;;;;;;7.33;5.20;;;;;;;;;;5055377;28;20012;-61
2021/01/17 05:31:59;;;;;;;7.93;5.23;;;;;;;;;;5054787;28;20047;-62
2021/01/17 05:34:25;;;;;;;7.83;5.37;;;;;;;;;;5072085;28;20052;-62
2021/01/17 05:37:03;;;;;;;8.30;5.20;;;;;;;;;;5073012;28;20067;-62
2021/01/17 05:39:28;;;;;;;9.37;5.20;;;;;;;;;;5065492;28;20030;-62
2021/01/17 05:42:04;;;;;;;8.93;5.23;;;;;;;;;;5068442;28;20027;-62
2021/01/17 05:44:29;;;;;;;9.48;5.80;;;;;;;;;;5066449;28;20459;-62
2021/01/17 05:47:04;;;;;;;8.50;5.30;;;;;;;;;;5073211;28;20056;-62
2021/01/17 05:49:29;;;;;;;8.73;5.00;;;;;;;;;;5055142;28;20016;-62
2021/01/17 05:52:08;;;;;;;8.40;5.60;;;;;;;;;;5058474;28;20121;-62
2021/01/17 05:54:33;;;;;;;7.80;5.50;;;;;;;;;;5072605;28;20020;-62
2021/01/17 05:56:58;;;;;;;8.27;5.40;;;;;;;;;;5071369;28;20501;-62
2021/01/17 05:59:35;;;;;;;8.93;5.27;;;;;;;;;;5067268;28;20029;-62
2021/01/17 06:02:01;;;;;;;8.10;5.43;;;;;;;;;;5065668;28;20476;-62
2021/01/17 06:04:27;;;;;;;10.73;6.10;;;;;;;;;;5060883;28;20078;-62
2021/01/17 06:06:53;;;;;;;8.10;5.30;;;;;;;;;;5071664;28;20024;-61
2021/01/17 06:09:18;;;;;;;8.80;4.97;;;;;;;;;;5064994;28;20472;-62
2021/01/17 06:11:55;;;;;;;7.87;5.37;;;;;;;;;;5070015;28;20032;-61
2021/01/17 06:14:23;;;;;;;7.87;5.07;;;;;;;;;;5067096;28;20468;-61
2021/01/17 06:16:49;;;;;;;9.57;5.77;;;;;;;;;;5056984;28;20020;-62
2021/01/17 06:19:14;;;;;;;10.33;5.93;;;;;;;;;;5064856;28;20403;-62
2021/01/17 06:21:46;;;;;;;10.00;5.87;;;;;;;;;;5060712;28;20055;-61
2021/01/17 06:24:11;;;;;;;12.03;6.53;;;;;;;;;;5053808;28;20020;-62
2021/01/17 06:26:38;;;;;;;9.77;5.70;;;;;;;;;;5070864;28;20043;-61
2021/01/17 06:29:05;;;;;;;9.40;5.27;;;;;;;;;;5062835;28;20101;-62
2021/01/17 06:31:31;;;;;;;7.23;4.97;;;;;;;;;;5069643;28;20024;-61
2021/01/17 06:34:02;;;;;;;8.17;4.87;;;;;;;;;;5060928;28;20036;-61
2021/01/17 06:36:28;;;;;;;8.17;5.70;;;;;;;;;;5060849;28;20016;-61
2021/01/17 06:38:53;;;;;;;10.33;6.43;;;;;;;;;;5057015;28;20511;-61
2021/01/17 06:41:28;;;;;;;12.27;6.17;;;;;;;;;;5072244;28;20107;-61
2021/01/17 06:43:53;;;;;;;9.02;5.85;;;;;;;;;;5070349;28;20024;-61
2021/01/17 06:46:19;;;;;;;10.67;5.10;;;;;;;;;;5067125;28;20383;-61
2021/01/17 06:48:44;;;;;;;9.60;5.37;;;;;;;;;;5064542;28;20101;-61
2021/01/17 06:51:16;;;;;;;10.47;6.23;;;;;;;;;;5064336;28;20107;-61
2021/01/17 06:53:50;;;;;;;8.73;5.43;;;;;;;;;;5064553;28;20021;-61
2021/01/17 06:56:15;;;;;;;8.37;5.40;;;;;;;;;;5071206;28;20017;-62
2021/01/17 06:58:41;;;;;;;8.67;5.63;;;;;;;;;;5061441;28;20624;-62
2021/01/17 07:01:07;;;;;;;8.43;5.00;;;;;;;;;;5064099;28;20025;-62
2021/01/17 07:03:38;;;;;;;7.57;4.67;;;;;;;;;;5060564;28;20020;-62
2021/01/17 07:06:36;;;;;;;9.27;6.07;;;;;;;;;;5068314;28;20074;-62
2021/01/17 07:09:06;;;;;;;8.00;5.30;;;;;;;;;;5005190;28;20069;-62
2021/01/17 07:11:54;;;;;;;8.23;5.63;;;;;;;;;;5005529;28;20034;-62
2021/01/17 07:14:25;;;;;;;10.30;5.70;;;;;;;;;;4998309;28;20014;-62
2021/01/17 07:16:53;;;;;;;10.37;5.70;;;;;;;;;;5009460;28;20017;-62
2021/01/17 07:19:18;;;;;;;10.63;6.07;;;;;;;;;;4990305;28;20048;-62
2021/01/17 07:21:48;;;;;;;10.93;6.33;;;;;;;;;;5001085;28;20053;-62
2021/01/17 07:24:15;;;;;;;12.00;6.63;;;;;;;;;;5010504;28;20026;-62
2021/01/17 07:26:48;;;;;;;10.60;6.60;;;;;;;;;;5011837;28;20065;-62
2021/01/17 07:29:15;;;;;;;12.47;6.40;;;;;;;;;;5010211;28;20021;-62
2021/01/17 07:31:41;;;;;;;14.53;7.20;;;;;;;;;;5012064;28;20034;-62
2021/01/17 07:34:15;;;;;;;13.10;6.60;;;;;;;;;;5003266;28;20340;-62
2021/01/17 07:36:46;;;;;;;11.37;6.37;;;;;;;;;;4997573;28;20054;-62
2021/01/17 07:39:12;;;;;;;10.27;6.13;;;;;;;;;;5009685;28;20030;-63
2021/01/17 07:41:45;;;;;;;10.80;6.50;;;;;;;;;;4987785;28;20033;-62
2021/01/17 07:44:14;;;;;;;9.83;6.30;;;;;;;;;;5027207;28;20033;-62
2021/01/17 07:46:41;;;;;;;10.20;6.77;;;;;;;;;;5073961;28;20464;-63
2021/01/17 07:49:07;;;;;;;12.53;6.90;;;;;;;;;;5056778;28;20024;-63
2021/01/17 07:51:33;;;;;;;12.17;6.80;;;;;;;;;;5071485;28;20031;-63
2021/01/17 07:54:08;;;;;;;10.83;6.77;;;;;;;;;;5073624;28;20020;-62
2021/01/17 07:56:35;;;;;;;11.80;7.40;;;;;;;;;;5075097;28;20032;-63
2021/01/17 07:59:01;;;;;;;10.40;6.83;;;;;;;;;;5057859;28;20096;-62
2021/01/17 08:01:40;;;;;;;14.07;7.73;;;;;;;;;;5062386;28;20113;-62
2021/01/17 08:04:05;;;;;;;11.23;6.97;;;;;;;;;;5065130;28;20130;-62
2021/01/17 08:06:33;;;;;;;11.70;6.83;;;;;;;;;;5056920;28;20104;-62
2021/01/17 08:08:59;;;;;;;10.83;7.07;;;;;;;;;;5054191;28;20028;-62
2021/01/17 08:11:42;;;;;;;10.70;6.83;;;;;;;;;;5059175;28;20016;-62
2021/01/17 08:14:21;;;;;;;8.60;6.00;;;;;;;;;;5066147;28;20107;-62
2021/01/17 08:17:01;;;;;;;11.33;6.47;;;;;;;;;;5053454;28;20021;-62
2021/01/17 08:19:36;;;;;;;8.97;6.00;;;;;;;;;;5050407;28;20021;-62
2021/01/17 08:22:16;;;;;;;10.85;6.75;;;;;;;;;;5070700;28;20070;-62
2021/01/17 08:24:41;;;;;;;10.83;6.83;;;;;;;;;;5069148;28;20037;-63
2021/01/17 08:27:06;;;;;;;11.03;6.73;;;;;;;;;;5065517;28;20028;-62
2021/01/17 08:29:52;;;;;;;12.10;6.03;;;;;;;;;;5070246;28;20037;-63
2021/01/17 08:32:35;;;;;;;11.40;6.50;;;;;;;;;;5074329;28;20020;-64
2021/01/17 08:35:13;;;;;;;10.67;6.43;;;;;;;;;;5073582;28;20415;-63
2021/01/17 08:37:38;;;;;;;9.67;6.47;;;;;;;;;;5073875;28;20021;-63
2021/01/17 08:40:04;;;;;;;10.57;6.97;;;;;;;;;;5071510;28;20074;-63
2021/01/17 08:42:29;;;;;;;9.60;6.60;;;;;;;;;;5074056;28;20066;-63
2021/01/17 08:44:55;;;;;;;8.90;5.70;;;;;;;;;;5073487;28;20059;-63
2021/01/17 08:47:20;;;;;;;8.90;5.70;;;;;;;;;;5073081;28;20016;-63
2021/01/17 08:49:45;;;;;;;9.07;6.00;;;;;;;;;;5067499;28;20402;-62
2021/01/17 08:52:11;;;;;;;11.50;6.87;;;;;;;;;;5072857;28;20476;-63
2021/01/17 08:54:47;;;;;;;9.53;5.87;;;;;;;;;;5072665;28;20020;-64
2021/01/17 08:57:31;;;;;;;9.77;6.63;;;;;;;;;;5074413;28;20024;-64
2021/01/17 08:59:56;;;;;;;11.10;6.67;;;;;;;;;;5070201;28;20046;-63
2021/01/17 09:02:22;;;;;;;10.70;6.50;;;;;;;;;;5056855;28;20112;-64
2021/01/17 09:04:48;;;;;;;10.20;6.43;;;;;;;;;;5066923;28;20107;-63
2021/01/17 09:07:31;;;;;;;8.33;5.40;;;;;;;;;;5054607;28;20032;-64
2021/01/17 09:10:02;;;;;;;9.30;5.90;;;;;;;;;;5050767;28;20098;-63
2021/01/17 09:12:28;;;;;;;8.03;5.57;;;;;;;;;;5060428;28;20507;-63
2021/01/17 09:14:55;;;;;;;8.57;5.67;;;;;;;;;;5068211;28;20015;-63
2021/01/17 09:17:24;;;;;;;9.17;5.83;;;;;;;;;;5070299;28;20047;-64
2021/01/17 09:19:50;;;;;;;8.47;5.70;;;;;;;;;;5054378;28;20422;-64
2021/01/17 09:22:16;;;;;;;9.63;5.70;;;;;;;;;;5064330;28;20066;-64
2021/01/17 09:24:42;;;;;;;8.43;5.80;;;;;;;;;;5069227;28;20037;-64
2021/01/17 09:27:08;;;;;;;9.80;6.20;;;;;;;;;;5053217;28;20025;-62
2021/01/17 09:29:37;;;;;;;11.73;6.60;;;;;;;;;;5053864;28;20029;-64
2021/01/17 09:32:05;;;;;;;8.10;5.43;;;;;;;;;;5053409;28;20028;-65
2021/01/17 09:34:35;;;;;;;9.80;6.07;;;;;;;;;;5067723;28;20021;-65
2021/01/17 09:37:01;;;;;;;9.20;5.97;;;;;;;;;;5056333;28;20498;-63
2021/01/17 09:39:26;;;;;;;9.90;6.57;;;;;;;;;;5068543;28;20062;-63
2021/01/17 09:41:52;;;;;;;12.33;6.93;;;;;;;;;;5054942;28;20025;-63
2021/01/17 09:44:17;;;;;;;11.13;6.23;;;;;;;;;;5052856;28;20020;-63
2021/01/17 09:46:42;;;;;;;11.17;7.00;;;;;;;;;;5053503;28;20025;-64
2021/01/17 09:49:08;;;;;;;9.90;6.63;;;;;;;;;;5050566;28;20021;-63
2021/01/17 09:51:34;;;;;;;10.30;6.70;;;;;;;;;;5057605;28;20512;-63
2021/01/17 09:53:59;;;;;;;10.47;7.07;;;;;;;;;;5055561;28;20159;-65
2021/01/17 09:56:25;;;;;;;9.40;6.53;;;;;;;;;;5054547;28;20108;-64
2021/01/17 09:58:50;;;;;;;8.77;5.80;;;;;;;;;;5050581;28;20024;-62
2021/01/17 10:01:21;;;;;;;11.53;6.77;;;;;;;;;;5057813;28;20154;-63
2021/01/17 10:03:47;;;;;;;9.63;6.67;;;;;;;;;;5056964;28;20025;-63
2021/01/17 10:06:13;;;;;;;9.73;5.67;;;;;;;;;;5054800;28;20545;-63
2021/01/17 10:08:39;;;;;;;10.67;6.83;;;;;;;;;;5051271;28;20044;-63
2021/01/17 10:11:05;;;;;;;8.43;5.83;;;;;;;;;;5066885;28;20077;-63
2021/01/17 10:13:33;;;;;;;6.73;5.17;;;;;;;;;;5064605;28;20104;-62
2021/01/17 10:15:59;;;;;;;7.37;5.07;;;;;;;;;;5069120;28;20021;-63
2021/01/17 10:18:25;;;;;;;7.60;4.43;;;;;;;;;;5049812;28;20171;-64
2021/01/17 10:20:54;;;;;;;7.57;3.00;;;;;;;;;;5046727;28;20065;-64
2021/01/17 10:23:29;;;;;;;6.53;4.40;;;;;;;;;;5069141;28;20064;-64
2021/01/17 10:25:55;;;;;;;6.40;4.30;;;;;;;;;;5059217;28;20057;-63
2021/01/17 10:28:23;;;;;;;6.03;3.60;;;;;;;;;;5051468;28;20393;-64
2021/01/17 10:30:50;;;;;;;7.37;4.17;;;;;;;;;;5048418;28;20120;-64
2021/01/17 10:33:16;;;;;;;7.17;4.70;;;;;;;;;;5054179;28;20459;-64
2021/01/17 10:35:44;;;;;;;4.20;3.40;;;;;;;;;;5054518;28;20019;-63
2021/01/17 10:38:10;;;;;;;5.20;3.22;;;;;;;;;;5060966;28;20028;-64
2021/01/17 10:40:36;;;;;;;4.38;3.83;;;;;;;;;;5046766;28;20391;-64
2021/01/17 10:43:31;;;;;;;6.10;3.55;;;;;;;;;;5049960;28;20272;-62
2021/01/17 10:46:00;;;;;;;4.60;3.80;;;;;;;;;;5042869;28;20047;-63
2021/01/17 10:48:26;;;;;;;5.00;4.13;;;;;;;;;;5052334;28;20025;-64
2021/01/17 10:50:58;;;;;;;6.70;5.93;;;;;;;;;;5049743;28;20139;-64
2021/01/17 10:53:27;;;;;;;6.40;5.30;;;;;;;;;;5051878;28;20065;-63
2021/01/17 10:55:54;;;;;;;6.15;4.47;;;;;;;;;;5058548;28;20032;-63
2021/01/17 10:58:24;;;;;;;8.07;5.53;;;;;;;;;;5048250;28;20029;-63
2021/01/17 11:00:52;;;;;;;5.47;4.82;;;;;;;;;;5062798;28;20024;-63
2021/01/17 11:03:27;;;;;;;4.60;4.03;;;;;;;;;;5062776;28;20031;-64
2021/01/17 11:06:02;;;;;;;7.20;5.05;;;;;;;;;;5057529;28;20025;-64
2021/01/17 11:08:29;;;;;;;7.68;5.15;;;;;;;;;;5052194;28;20357;-64
2021/01/17 11:10:57;;;;;;;5.80;4.80;;;;;;;;;;5053060;28;20013;-64
2021/01/17 11:13:22;;;;;;;5.43;4.72;;;;;;;;;;5053885;28;20020;-62
2021/01/17 11:15:48;;;;;;;5.68;4.25;;;;;;;;;;5053921;28;20477;-63
2021/01/17 11:18:19;;;;;;;5.80;5.20;;;;;;;;;;5058656;28;20017;-63
2021/01/17 11:20:44;;;;;;;5.63;4.75;;;;;;;;;;5062295;28;20024;-63
2021/01/17 11:23:11;;;;;;;4.63;3.40;;;;;;;;;;5055659;28;20040;-63
2021/01/17 11:25:36;;;;;;;2.75;2.47;;;;;;;;;;5052077;28;20063;-63
2021/01/17 11:28:03;;;;;;;3.35;2.95;;;;;;;;;;5055883;28;20415;-63
2021/01/17 11:30:29;;;;;;;4.00;3.38;;;;;;;;;;5048879;28;20028;-63
2021/01/17 11:33:11;;;;;;;4.63;4.22;;;;;;;;;;5054989;28;20118;-63
2021/01/17 11:35:36;;;;;;;4.38;3.97;;;;;;;;;;5061908;28;20319;-63
2021/01/17 11:38:02;;;;;;;6.18;3.90;;;;;;;;;;5067975;28;20552;-64
2021/01/17 11:40:28;;;;;;;4.13;3.78;;;;;;;;;;5053237;28;20053;-63
2021/01/17 11:43:03;;;;;;;4.38;3.97;;;;;;;;;;5059643;28;20060;-64
2021/01/17 11:45:28;;;;;;;5.55;4.65;;;;;;;;;;5064545;28;20094;-64
2021/01/17 11:47:59;;;;;;;4.82;4.43;;;;;;;;;;5066549;28;20051;-64
2021/01/17 11:50:25;;;;;;;4.50;4.10;;;;;;;;;;5056821;28;20029;-63
2021/01/17 11:52:57;;;;;;;4.72;4.20;;;;;;;;;;5060398;28;20023;-64
2021/01/17 11:55:23;;;;;;;4.88;3.65;;;;;;;;;;5070375;28;20471;-64
2021/01/17 11:57:48;;;;;;;4.50;4.05;;;;;;;;;;5065609;28;20078;-64
2021/01/17 12:00:14;;;;;;;4.53;3.90;;;;;;;;;;5070756;28;20031;-64
2021/01/17 12:02:39;;;;;;;4.30;3.90;;;;;;;;;;5062225;28;20020;-64
2021/01/17 12:05:05;;;;;;;4.97;3.90;;;;;;;;;;5072830;28;20070;-64
2021/01/17 12:07:30;;;;;;;3.80;3.35;;;;;;;;;;5073831;28;20378;-64
2021/01/17 12:10:02;;;;;;;3.60;3.30;;;;;;;;;;5066207;28;20029;-64
2021/01/17 12:12:32;;;;;;;4.43;3.53;;;;;;;;;;5070430;28;20023;-64
2021/01/17 12:14:58;;;;;;;2.78;2.47;;;;;;;;;;5069347;28;20027;-64
2021/01/17 12:17:24;;;;;;;3.40;2.88;;;;;;;;;;5071852;28;20119;-64
2021/01/17 12:19:50;;;;;;;3.47;2.70;;;;;;;;;;5058459;28;20074;-64
2021/01/17 12:22:15;;;;;;;3.08;2.35;;;;;;;;;;5065731;28;20391;-64
2021/01/17 12:24:40;;;;;;;3.70;2.47;;;;;;;;;;5055837;28;20541;-63
2021/01/17 12:27:06;;;;;;;3.47;2.95;;;;;;;;;;5058229;28;20480;-63
2021/01/17 12:29:31;;;;;;;2.40;2.20;;;;;;;;;;5068437;28;20020;-64
2021/01/17 12:31:56;;;;;;;2.05;1.77;;;;;;;;;;5068541;28;20033;-64
2021/01/17 12:34:21;;;;;;;1.67;1.58;;;;;;;;;;5068240;28;20537;-64
2021/01/17 12:36:47;;;;;;;2.55;2.35;;;;;;;;;;5055463;28;20036;-64
2021/01/17 12:39:14;;;;;;;2.50;2.20;;;;;;;;;;5062350;28;20436;-64
2021/01/17 12:41:43;;;;;;;2.63;2.40;;;;;;;;;;5074487;28;20021;-64
2021/01/17 12:44:08;;;;;;;2.78;2.10;;;;;;;;;;5069720;28;20016;-64
2021/01/17 12:46:34;;;;;;;2.75;2.50;;;;;;;;;;5066130;28;20066;-64
2021/01/17 12:48:59;;;;;;;3.15;2.50;;;;;;;;;;5052117;28;20028;-64
2021/01/17 12:51:24;;;;;;;4.10;2.78;;;;;;;;;;5073478;28;20021;-64
2021/01/17 12:53:50;;;;;;;4.03;2.47;;;;;;;;;;5058733;28;20024;-64
2021/01/17 12:56:16;;;;;;;2.40;1.80;;;;;;;;;;5060380;28;20468;-64
2021/01/17 12:58:41;;;;;;;2.25;1.70;;;;;;;;;;5058752;28;20029;-63
2021/01/17 13:01:07;;;;;;;2.50;1.95;;;;;;;;;;5060928;28;20581;-63
2021/01/17 13:03:32;;;;;;;3.37;2.10;;;;;;;;;;5056662;28;20055;-63
2021/01/17 13:05:58;;;;;;;4.03;2.80;;;;;;;;;;5055313;28;20016;-63
2021/01/17 13:08:23;;;;;;;5.47;4.07;;;;;;;;;;5063176;28;20159;-63
2021/01/17 13:10:49;;;;;;;4.80;3.43;;;;;;;;;;5056609;28;20091;-63
2021/01/17 13:13:15;;;;;;;5.57;3.40;;;;;;;;;;5059189;28;20025;-62
2021/01/17 13:15:52;;;;;;;5.00;3.20;;;;;;;;;;5053285;28;20024;-62
2021/01/17 13:18:18;;;;;;;5.23;3.50;;;;;;;;;;5062604;28;20028;-62
2021/01/17 13:20:44;;;;;;;5.63;4.00;;;;;;;;;;5067439;28;20470;-62
2021/01/17 13:23:09;;;;;;;4.80;3.10;;;;;;;;;;5054496;28;20116;-62
2021/01/17 13:25:38;;;;;;;4.87;2.70;;;;;;;;;;5058074;28;20400;-62
2021/01/17 13:28:03;;;;;;;2.87;2.10;;;;;;;;;;5055240;28;20045;-61
2021/01/17 13:30:29;;;;;;;4.90;3.83;;;;;;;;;;5049611;28;20021;-63
2021/01/17 13:32:54;;;;;;;5.43;3.03;;;;;;;;;;5064563;28;20029;-63
2021/01/17 13:35:19;;;;;;;5.80;3.47;;;;;;;;;;5061466;28;20025;-62
2021/01/17 13:37:45;;;;;;;4.87;3.17;;;;;;;;;;5054909;28;20111;-63
2021/01/17 13:40:10;;;;;;;5.63;3.70;;;;;;;;;;5054875;28;20115;-62
2021/01/17 13:42:35;;;;;;;6.17;4.37;;;;;;;;;;5055214;28;20016;-62
2021/01/17 13:45:01;;;;;;;7.20;4.07;;;;;;;;;;5055481;28;20024;-63
2021/01/17 13:47:27;;;;;;;6.03;4.10;;;;;;;;;;5057938;28;20070;-64
2021/01/17 13:49:57;;;;;;;8.27;5.73;;;;;;;;;;5057214;28;20099;-64
2021/01/17 13:52:22;;;;;;;7.80;4.73;;;;;;;;;;5059800;28;20542;-63
2021/01/17 13:54:48;;;;;;;7.10;4.33;;;;;;;;;;5062477;28;20100;-63
2021/01/17 13:57:14;;;;;;;9.67;4.77;;;;;;;;;;5061629;28;20051;-64
2021/01/17 13:59:39;;;;;;;6.77;4.40;;;;;;;;;;5051455;28;20376;-63
2021/01/17 14:02:08;;;;;;;6.13;3.50;;;;;;;;;;5058242;28;20016;-63
2021/01/17 14:04:34;;;;;;;5.40;3.50;;;;;;;;;;5059886;28;20013;-63
2021/01/17 14:06:59;;;;;;;8.47;5.00;;;;;;;;;;5056161;28;20398;-63
2021/01/17 14:09:24;;;;;;;6.37;4.57;;;;;;;;;;5057199;28;20091;-62
2021/01/17 14:11:49;;;;;;;3.53;2.13;;;;;;;;;;5067151;28;20023;-63
2021/01/17 14:14:15;;;;;;;6.83;4.57;;;;;;;;;;5058494;28;20021;-62
2021/01/17 14:16:43;;;;;;;7.30;4.47;;;;;;;;;;5067976;28;20024;-62
2021/01/17 14:19:09;;;;;;;7.23;4.83;;;;;;;;;;5052390;28;20016;-61
2021/01/17 14:21:44;;;;;;;10.27;6.10;;;;;;;;;;5058227;28;20724;-61
2021/01/17 14:24:10;;;;;;;8.80;5.30;;;;;;;;;;5067610;28;20044;-62
2021/01/17 14:26:36;;;;;;;10.13;6.60;;;;;;;;;;5063812;28;20056;-63
2021/01/17 14:29:05;;;;;;;11.73;6.53;;;;;;;;;;5069303;28;20024;-62
2021/01/17 14:31:31;;;;;;;10.00;6.43;;;;;;;;;;5071444;28;20383;-61
2021/01/17 14:33:56;;;;;;;9.30;5.60;;;;;;;;;;5064820;28;20028;-62
2021/01/17 14:36:21;;;;;;;8.93;5.47;;;;;;;;;;5065451;28;20074;-62
2021/01/17 14:38:46;;;;;;;8.37;5.80;;;;;;;;;;5047608;28;20012;-62
2021/01/17 14:41:12;;;;;;;8.80;5.63;;;;;;;;;;5065727;28;20016;-62